メインページ
METAR-TAF:

METAR-TAF

空港 :

イーラーム, イラン

緯度: 33-35-09N, 経度: 046-24-20E, 海抜: 1334m

現時点の気象観測

当レポートは1時間5分前の18:00(UTC)に作成
東/北東の風 4kt
気温 3°C
湿度 87%
気圧 1025 hPa
視程10km以上
1,500メートル以下は雲なし、積乱雲なし

METAR: OICI 111800Z 07004KT CAVOK 03/01 Q1025 A3027

時間: 22:35 (19:05 UTC)

予報

当レポートは1時間5分前の18:00(UTC)に作成
予報は11日の 18時(UTC)から 12日の 24時(UTC)まで有効
南東の風 8kt
視程: 8000m

TAF: OICI 111800Z 1118/1224 13004MPS 8000 NSC

4,000以上の空港の気象観測と天気予報(METAR報とTAF報)

利用可能な観測所は地図上に黄色い丸と赤い丸で示す。

丸の上にカーソルを重ねると観測所名を参照できる。

次にクリックすると気象観測と天気予報を参照できる。

マップの切り替え:黒色「×」印の緑ボタンをクリックして拡大、「-」印の緑ボタンをクリックして縮小、緑色の三角印をクリックして隣りの地図に切り替え


METAR-TAF: